sensor_id;sensor_type;location;lat;lon;timestamp;P1;durP1;ratioP1;P2;durP2;ratioP2
31262;SDS011;17892;52.080;9.006;2023-01-01T00:00:57;5.55;;;2.70;;
31262;SDS011;17892;52.080;9.006;2023-01-01T00:03:23;6.07;;;3.55;;
31262;SDS011;17892;52.080;9.006;2023-01-01T00:05:49;7.07;;;3.33;;
31262;SDS011;17892;52.080;9.006;2023-01-01T00:08:14;6.13;;;3.13;;
31262;SDS011;17892;52.080;9.006;2023-01-01T00:10:40;5.32;;;2.95;;
31262;SDS011;17892;52.080;9.006;2023-01-01T00:13:05;9.10;;;3.10;;
31262;SDS011;17892;52.080;9.006;2023-01-01T00:15:31;6.03;;;3.08;;
31262;SDS011;17892;52.080;9.006;2023-01-01T00:17:58;7.07;;;2.65;;
31262;SDS011;17892;52.080;9.006;2023-01-01T00:20:24;5.78;;;3.03;;
31262;SDS011;17892;52.080;9.006;2023-01-01T00:22:49;5.07;;;2.90;;
31262;SDS011;17892;52.080;9.006;2023-01-01T00:25:15;7.30;;;2.72;;
31262;SDS011;17892;52.080;9.006;2023-01-01T00:27:42;6.38;;;2.45;;
31262;SDS011;17892;52.080;9.006;2023-01-01T00:30:08;7.38;;;2.67;;
31262;SDS011;17892;52.080;9.006;2023-01-01T00:32:34;9.43;;;2.80;;
31262;SDS011;17892;52.080;9.006;2023-01-01T00:35:00;5.45;;;2.45;;
31262;SDS011;17892;52.080;9.006;2023-01-01T00:37:27;5.22;;;2.20;;
31262;SDS011;17892;52.080;9.006;2023-01-01T00:39:53;5.47;;;1.98;;
31262;SDS011;17892;52.080;9.006;2023-01-01T00:42:18;7.90;;;2.40;;
31262;SDS011;17892;52.080;9.006;2023-01-01T00:44:44;6.90;;;2.45;;
31262;SDS011;17892;52.080;9.006;2023-01-01T00:47:10;5.18;;;1.88;;
31262;SDS011;17892;52.080;9.006;2023-01-01T00:49:36;4.85;;;2.63;;
31262;SDS011;17892;52.080;9.006;2023-01-01T00:52:02;8.07;;;2.65;;
31262;SDS011;17892;52.080;9.006;2023-01-01T00:54:28;4.82;;;2.20;;
31262;SDS011;17892;52.080;9.006;2023-01-01T00:56:53;6.00;;;2.00;;
31262;SDS011;17892;52.080;9.006;2023-01-01T00:59:21;5.95;;;2.33;;
31262;SDS011;17892;52.080;9.006;2023-01-01T01:01:47;5.78;;;2.15;;
31262;SDS011;17892;52.080;9.006;2023-01-01T01:04:13;5.65;;;2.30;;
31262;SDS011;17892;52.080;9.006;2023-01-01T01:06:39;7.07;;;2.70;;
31262;SDS011;17892;52.080;9.006;2023-01-01T01:09:04;7.28;;;2.35;;
31262;SDS011;17892;52.080;9.006;2023-01-01T01:11:31;4.38;;;2.10;;
31262;SDS011;17892;52.080;9.006;2023-01-01T01:13:57;6.22;;;2.08;;
31262;SDS011;17892;52.080;9.006;2023-01-01T01:16:24;4.25;;;2.10;;
31262;SDS011;17892;52.080;9.006;2023-01-01T01:18:53;8.15;;;2.30;;
31262;SDS011;17892;52.080;9.006;2023-01-01T01:21:21;6.03;;;2.42;;
31262;SDS011;17892;52.080;9.006;2023-01-01T01:23:48;6.18;;;2.40;;
31262;SDS011;17892;52.080;9.006;2023-01-01T01:26:16;6.10;;;2.47;;
31262;SDS011;17892;52.080;9.006;2023-01-01T01:28:47;5.95;;;2.78;;
31262;SDS011;17892;52.080;9.006;2023-01-01T01:31:13;7.75;;;2.40;;
31262;SDS011;17892;52.080;9.006;2023-01-01T01:33:41;4.93;;;2.42;;
31262;SDS011;17892;52.080;9.006;2023-01-01T01:36:09;9.82;;;2.92;;
31262;SDS011;17892;52.080;9.006;2023-01-01T01:38:35;6.97;;;2.85;;
31262;SDS011;17892;52.080;9.006;2023-01-01T01:41:02;5.10;;;2.63;;
31262;SDS011;17892;52.080;9.006;2023-01-01T01:46:00;5.75;;;2.60;;
31262;SDS011;17892;52.080;9.006;2023-01-01T01:48:42;6.80;;;3.40;;
31262;SDS011;17892;52.080;9.006;2023-01-01T01:51:12;6.18;;;2.65;;
31262;SDS011;17892;52.080;9.006;2023-01-01T01:53:44;6.72;;;2.83;;
31262;SDS011;17892;52.080;9.006;2023-01-01T01:56:15;6.75;;;2.55;;
31262;SDS011;17892;52.080;9.006;2023-01-01T01:58:52;5.45;;;2.42;;
31262;SDS011;17892;52.080;9.006;2023-01-01T02:01:18;4.55;;;2.20;;
31262;SDS011;17892;52.080;9.006;2023-01-01T02:03:46;4.90;;;2.17;;
31262;SDS011;17892;52.080;9.006;2023-01-01T02:06:19;6.82;;;2.63;;
31262;SDS011;17892;52.080;9.006;2023-01-01T02:08:45;5.45;;;2.40;;
31262;SDS011;17892;52.080;9.006;2023-01-01T02:11:13;7.18;;;2.53;;
31262;SDS011;17892;52.080;9.006;2023-01-01T02:13:38;8.65;;;2.92;;
31262;SDS011;17892;52.080;9.006;2023-01-01T02:16:12;6.13;;;2.95;;
31262;SDS011;17892;52.080;9.006;2023-01-01T02:21:29;6.63;;;2.83;;
31262;SDS011;17892;52.080;9.006;2023-01-01T02:24:31;5.07;;;2.55;;
31262;SDS011;17892;52.080;9.006;2023-01-01T02:30:18;6.45;;;2.83;;
31262;SDS011;17892;52.080;9.006;2023-01-01T02:32:53;7.38;;;2.85;;
31262;SDS011;17892;52.080;9.006;2023-01-01T02:35:28;6.32;;;2.60;;
31262;SDS011;17892;52.080;9.006;2023-01-01T02:38:22;5.53;;;2.38;;
31262;SDS011;17892;52.080;9.006;2023-01-01T02:40:56;6.03;;;2.85;;
31262;SDS011;17892;52.080;9.006;2023-01-01T02:43:27;4.30;;;2.00;;
31262;SDS011;17892;52.080;9.006;2023-01-01T02:45:53;5.30;;;2.50;;
31262;SDS011;17892;52.080;9.006;2023-01-01T02:51:28;5.57;;;2.50;;
31262;SDS011;17892;52.080;9.006;2023-01-01T02:54:44;7.00;;;2.50;;
31262;SDS011;17892;52.080;9.006;2023-01-01T03:00:09;7.05;;;2.10;;
31262;SDS011;17892;52.080;9.006;2023-01-01T03:03:05;5.00;;;2.28;;
31262;SDS011;17892;52.080;9.006;2023-01-01T03:05:58;5.03;;;2.00;;
31262;SDS011;17892;52.080;9.006;2023-01-01T03:11:36;4.70;;;2.50;;
31262;SDS011;17892;52.080;9.006;2023-01-01T03:16:45;3.95;;;1.95;;
31262;SDS011;17892;52.080;9.006;2023-01-01T03:19:22;3.47;;;1.85;;
31262;SDS011;17892;52.080;9.006;2023-01-01T03:22:00;4.20;;;1.70;;
31262;SDS011;17892;52.080;9.006;2023-01-01T03:24:51;4.32;;;1.83;;
31262;SDS011;17892;52.080;9.006;2023-01-01T03:27:27;3.78;;;1.73;;
31262;SDS011;17892;52.080;9.006;2023-01-01T03:30:00;4.20;;;1.63;;
31262;SDS011;17892;52.080;9.006;2023-01-01T03:32:40;5.95;;;1.95;;
31262;SDS011;17892;52.080;9.006;2023-01-01T03:35:39;4.45;;;1.80;;
31262;SDS011;17892;52.080;9.006;2023-01-01T03:38:28;3.80;;;1.90;;
31262;SDS011;17892;52.080;9.006;2023-01-01T03:41:16;6.25;;;1.90;;
31262;SDS011;17892;52.080;9.006;2023-01-01T03:43:55;3.40;;;1.58;;
31262;SDS011;17892;52.080;9.006;2023-01-01T03:46:33;6.15;;;2.22;;
31262;SDS011;17892;52.080;9.006;2023-01-01T03:49:01;3.70;;;1.65;;
31262;SDS011;17892;52.080;9.006;2023-01-01T03:59:52;5.53;;;2.13;;
31262;SDS011;17892;52.080;9.006;2023-01-01T04:02:43;4.18;;;1.70;;
31262;SDS011;17892;52.080;9.006;2023-01-01T04:05:21;4.03;;;1.75;;
31262;SDS011;17892;52.080;9.006;2023-01-01T04:07:48;3.70;;;2.10;;
31262;SDS011;17892;52.080;9.006;2023-01-01T04:10:16;4.25;;;1.60;;
31262;SDS011;17892;52.080;9.006;2023-01-01T04:12:43;4.38;;;1.63;;
31262;SDS011;17892;52.080;9.006;2023-01-01T04:15:11;3.55;;;1.60;;
31262;SDS011;17892;52.080;9.006;2023-01-01T04:17:37;4.10;;;1.40;;
31262;SDS011;17892;52.080;9.006;2023-01-01T04:20:04;3.15;;;1.60;;
31262;SDS011;17892;52.080;9.006;2023-01-01T04:22:31;3.17;;;1.25;;
31262;SDS011;17892;52.080;9.006;2023-01-01T04:24:57;5.00;;;1.63;;
31262;SDS011;17892;52.080;9.006;2023-01-01T04:27:23;4.15;;;1.55;;
31262;SDS011;17892;52.080;9.006;2023-01-01T04:29:49;5.32;;;1.38;;
31262;SDS011;17892;52.080;9.006;2023-01-01T04:32:15;3.03;;;1.30;;
31262;SDS011;17892;52.080;9.006;2023-01-01T04:34:41;3.00;;;1.20;;
31262;SDS011;17892;52.080;9.006;2023-01-01T04:37:06;4.05;;;1.30;;
31262;SDS011;17892;52.080;9.006;2023-01-01T04:39:32;3.88;;;1.50;;
31262;SDS011;17892;52.080;9.006;2023-01-01T04:41:58;4.00;;;1.40;;
31262;SDS011;17892;52.080;9.006;2023-01-01T04:44:23;3.50;;;0.80;;
31262;SDS011;17892;52.080;9.006;2023-01-01T04:46:49;3.22;;;1.40;;
31262;SDS011;17892;52.080;9.006;2023-01-01T04:49:15;10.57;;;1.30;;
31262;SDS011;17892;52.080;9.006;2023-01-01T04:51:40;2.97;;;1.10;;
31262;SDS011;17892;52.080;9.006;2023-01-01T04:54:06;4.32;;;1.20;;
31262;SDS011;17892;52.080;9.006;2023-01-01T04:56:32;3.70;;;1.13;;
31262;SDS011;17892;52.080;9.006;2023-01-01T04:58:58;3.88;;;1.05;;
31262;SDS011;17892;52.080;9.006;2023-01-01T05:01:24;3.53;;;1.23;;
31262;SDS011;17892;52.080;9.006;2023-01-01T05:03:53;2.67;;;1.00;;
31262;SDS011;17892;52.080;9.006;2023-01-01T05:06:20;6.22;;;1.02;;
31262;SDS011;17892;52.080;9.006;2023-01-01T05:08:49;2.63;;;1.15;;
31262;SDS011;17892;52.080;9.006;2023-01-01T05:11:19;4.28;;;0.95;;
31262;SDS011;17892;52.080;9.006;2023-01-01T05:13:48;3.55;;;1.15;;
31262;SDS011;17892;52.080;9.006;2023-01-01T05:16:18;2.65;;;0.90;;
31262;SDS011;17892;52.080;9.006;2023-01-01T05:18:47;3.20;;;1.02;;
31262;SDS011;17892;52.080;9.006;2023-01-01T05:21:15;3.55;;;1.02;;
31262;SDS011;17892;52.080;9.006;2023-01-01T05:23:44;3.25;;;1.48;;
31262;SDS011;17892;52.080;9.006;2023-01-01T05:26:11;2.58;;;0.70;;
31262;SDS011;17892;52.080;9.006;2023-01-01T05:28:40;2.03;;;0.80;;
31262;SDS011;17892;52.080;9.006;2023-01-01T05:31:07;2.90;;;0.90;;
31262;SDS011;17892;52.080;9.006;2023-01-01T05:33:36;3.15;;;1.13;;
31262;SDS011;17892;52.080;9.006;2023-01-01T05:36:02;3.30;;;1.00;;
31262;SDS011;17892;52.080;9.006;2023-01-01T05:38:30;4.63;;;1.00;;
31262;SDS011;17892;52.080;9.006;2023-01-01T05:40:56;2.50;;;0.73;;
31262;SDS011;17892;52.080;9.006;2023-01-01T05:43:22;2.63;;;0.90;;
31262;SDS011;17892;52.080;9.006;2023-01-01T05:45:48;2.85;;;0.82;;
31262;SDS011;17892;52.080;9.006;2023-01-01T05:48:23;4.00;;;0.88;;
31262;SDS011;17892;52.080;9.006;2023-01-01T05:50:49;2.70;;;1.10;;
31262;SDS011;17892;52.080;9.006;2023-01-01T05:53:14;3.13;;;0.80;;
31262;SDS011;17892;52.080;9.006;2023-01-01T05:55:40;3.13;;;0.90;;
31262;SDS011;17892;52.080;9.006;2023-01-01T05:58:06;4.68;;;1.02;;
31262;SDS011;17892;52.080;9.006;2023-01-01T06:00:31;3.15;;;0.82;;
31262;SDS011;17892;52.080;9.006;2023-01-01T06:02:57;2.28;;;0.80;;
31262;SDS011;17892;52.080;9.006;2023-01-01T06:05:23;2.28;;;0.70;;
31262;SDS011;17892;52.080;9.006;2023-01-01T06:07:48;2.72;;;0.85;;
31262;SDS011;17892;52.080;9.006;2023-01-01T06:10:14;3.55;;;0.90;;
31262;SDS011;17892;52.080;9.006;2023-01-01T06:12:40;2.95;;;0.90;;
31262;SDS011;17892;52.080;9.006;2023-01-01T06:15:05;1.80;;;0.65;;
31262;SDS011;17892;52.080;9.006;2023-01-01T06:17:32;2.33;;;0.80;;
31262;SDS011;17892;52.080;9.006;2023-01-01T06:19:58;2.75;;;0.80;;
31262;SDS011;17892;52.080;9.006;2023-01-01T06:22:24;1.58;;;0.90;;
31262;SDS011;17892;52.080;9.006;2023-01-01T06:24:49;2.22;;;1.00;;
31262;SDS011;17892;52.080;9.006;2023-01-01T06:27:15;3.58;;;1.02;;
31262;SDS011;17892;52.080;9.006;2023-01-01T06:29:41;1.77;;;0.70;;
31262;SDS011;17892;52.080;9.006;2023-01-01T06:32:06;2.47;;;0.80;;
31262;SDS011;17892;52.080;9.006;2023-01-01T06:34:32;2.45;;;0.80;;
31262;SDS011;17892;52.080;9.006;2023-01-01T06:36:57;3.85;;;0.80;;
31262;SDS011;17892;52.080;9.006;2023-01-01T06:39:23;1.85;;;0.70;;
31262;SDS011;17892;52.080;9.006;2023-01-01T06:41:49;1.55;;;0.65;;
31262;SDS011;17892;52.080;9.006;2023-01-01T06:44:15;2.85;;;0.75;;
31262;SDS011;17892;52.080;9.006;2023-01-01T06:46:40;3.35;;;0.80;;
31262;SDS011;17892;52.080;9.006;2023-01-01T06:49:08;2.13;;;0.80;;
31262;SDS011;17892;52.080;9.006;2023-01-01T06:51:36;3.47;;;0.90;;
31262;SDS011;17892;52.080;9.006;2023-01-01T06:56:31;2.20;;;0.85;;
31262;SDS011;17892;52.080;9.006;2023-01-01T06:58:57;2.95;;;0.80;;
31262;SDS011;17892;52.080;9.006;2023-01-01T07:01:24;2.33;;;1.00;;
31262;SDS011;17892;52.080;9.006;2023-01-01T07:03:54;4.22;;;1.25;;
31262;SDS011;17892;52.080;9.006;2023-01-01T07:08:48;4.15;;;1.08;;
31262;SDS011;17892;52.080;9.006;2023-01-01T07:11:15;2.13;;;0.70;;
31262;SDS011;17892;52.080;9.006;2023-01-01T07:13:41;2.90;;;0.77;;
31262;SDS011;17892;52.080;9.006;2023-01-01T07:16:07;3.13;;;0.80;;
31262;SDS011;17892;52.080;9.006;2023-01-01T07:18:33;2.85;;;0.80;;
31262;SDS011;17892;52.080;9.006;2023-01-01T07:20:59;4.63;;;0.95;;
31262;SDS011;17892;52.080;9.006;2023-01-01T07:23:28;3.63;;;0.88;;
31262;SDS011;17892;52.080;9.006;2023-01-01T07:25:56;3.35;;;0.77;;
31262;SDS011;17892;52.080;9.006;2023-01-01T07:28:25;2.63;;;1.10;;
31262;SDS011;17892;52.080;9.006;2023-01-01T07:30:51;3.15;;;1.00;;
31262;SDS011;17892;52.080;9.006;2023-01-01T07:33:19;2.70;;;0.75;;
31262;SDS011;17892;52.080;9.006;2023-01-01T07:38:13;3.78;;;1.05;;
31262;SDS011;17892;52.080;9.006;2023-01-01T07:40:40;4.72;;;0.90;;
31262;SDS011;17892;52.080;9.006;2023-01-01T07:43:06;2.72;;;0.88;;
31262;SDS011;17892;52.080;9.006;2023-01-01T07:45:33;1.88;;;0.70;;
31262;SDS011;17892;52.080;9.006;2023-01-01T07:47:59;2.70;;;0.93;;
31262;SDS011;17892;52.080;9.006;2023-01-01T07:50:26;5.38;;;1.35;;
31262;SDS011;17892;52.080;9.006;2023-01-01T07:55:21;3.13;;;0.90;;
31262;SDS011;17892;52.080;9.006;2023-01-01T07:57:47;2.53;;;0.73;;
31262;SDS011;17892;52.080;9.006;2023-01-01T08:00:14;3.70;;;1.08;;
31262;SDS011;17892;52.080;9.006;2023-01-01T08:02:43;1.65;;;0.70;;
31262;SDS011;17892;52.080;9.006;2023-01-01T08:05:10;2.50;;;0.80;;
31262;SDS011;17892;52.080;9.006;2023-01-01T08:07:36;3.50;;;0.75;;
31262;SDS011;17892;52.080;9.006;2023-01-01T08:10:03;2.88;;;0.85;;
31262;SDS011;17892;52.080;9.006;2023-01-01T08:12:30;3.40;;;0.80;;
31262;SDS011;17892;52.080;9.006;2023-01-01T08:14:56;1.35;;;0.60;;
31262;SDS011;17892;52.080;9.006;2023-01-01T08:17:22;3.03;;;0.80;;
31262;SDS011;17892;52.080;9.006;2023-01-01T08:19:47;2.00;;;0.60;;
31262;SDS011;17892;52.080;9.006;2023-01-01T08:22:14;2.55;;;0.80;;
31262;SDS011;17892;52.080;9.006;2023-01-01T08:24:40;2.45;;;1.10;;
31262;SDS011;17892;52.080;9.006;2023-01-01T08:27:06;2.35;;;0.70;;
31262;SDS011;17892;52.080;9.006;2023-01-01T08:29:31;1.40;;;0.50;;
31262;SDS011;17892;52.080;9.006;2023-01-01T08:31:57;2.25;;;0.75;;
31262;SDS011;17892;52.080;9.006;2023-01-01T08:34:23;2.20;;;0.70;;
31262;SDS011;17892;52.080;9.006;2023-01-01T08:36:48;1.98;;;0.65;;
31262;SDS011;17892;52.080;9.006;2023-01-01T08:39:14;1.92;;;0.77;;
31262;SDS011;17892;52.080;9.006;2023-01-01T08:41:40;2.15;;;0.63;;
31262;SDS011;17892;52.080;9.006;2023-01-01T08:44:05;3.78;;;0.95;;
31262;SDS011;17892;52.080;9.006;2023-01-01T08:46:31;3.15;;;0.85;;
31262;SDS011;17892;52.080;9.006;2023-01-01T08:48:57;3.50;;;0.80;;
31262;SDS011;17892;52.080;9.006;2023-01-01T08:51:22;2.55;;;0.85;;
31262;SDS011;17892;52.080;9.006;2023-01-01T08:53:48;2.95;;;0.90;;
31262;SDS011;17892;52.080;9.006;2023-01-01T08:56:14;2.40;;;0.50;;
31262;SDS011;17892;52.080;9.006;2023-01-01T08:58:40;3.03;;;0.93;;
31262;SDS011;17892;52.080;9.006;2023-01-01T09:01:07;2.67;;;1.00;;
31262;SDS011;17892;52.080;9.006;2023-01-01T09:03:33;1.67;;;0.60;;
31262;SDS011;17892;52.080;9.006;2023-01-01T09:05:59;2.15;;;0.77;;
31262;SDS011;17892;52.080;9.006;2023-01-01T09:08:25;2.90;;;0.88;;
31262;SDS011;17892;52.080;9.006;2023-01-01T09:10:52;2.42;;;0.80;;
31262;SDS011;17892;52.080;9.006;2023-01-01T09:13:25;2.33;;;0.93;;
31262;SDS011;17892;52.080;9.006;2023-01-01T09:15:51;4.65;;;1.05;;
31262;SDS011;17892;52.080;9.006;2023-01-01T09:18:17;4.90;;;0.90;;
31262;SDS011;17892;52.080;9.006;2023-01-01T09:20:42;2.65;;;0.80;;
31262;SDS011;17892;52.080;9.006;2023-01-01T09:23:09;2.17;;;0.80;;
31262;SDS011;17892;52.080;9.006;2023-01-01T09:25:36;4.18;;;0.80;;
31262;SDS011;17892;52.080;9.006;2023-01-01T09:28:03;2.40;;;0.70;;
31262;SDS011;17892;52.080;9.006;2023-01-01T09:30:32;4.05;;;1.08;;
31262;SDS011;17892;52.080;9.006;2023-01-01T09:32:58;2.53;;;0.80;;
31262;SDS011;17892;52.080;9.006;2023-01-01T09:35:25;2.13;;;0.80;;
31262;SDS011;17892;52.080;9.006;2023-01-01T09:37:51;2.35;;;0.90;;
31262;SDS011;17892;52.080;9.006;2023-01-01T09:46:08;2.78;;;0.82;;
31262;SDS011;17892;52.080;9.006;2023-01-01T09:48:36;2.83;;;0.80;;
31262;SDS011;17892;52.080;9.006;2023-01-01T09:51:08;2.95;;;1.02;;
31262;SDS011;17892;52.080;9.006;2023-01-01T09:53:46;2.83;;;0.80;;
31262;SDS011;17892;52.080;9.006;2023-01-01T09:56:24;2.28;;;0.75;;
31262;SDS011;17892;52.080;9.006;2023-01-01T09:58:52;2.17;;;0.80;;
31262;SDS011;17892;52.080;9.006;2023-01-01T10:10:21;2.60;;;0.75;;
31262;SDS011;17892;52.080;9.006;2023-01-01T10:13:42;4.70;;;0.93;;
31262;SDS011;17892;52.080;9.006;2023-01-01T10:16:24;3.92;;;1.10;;
31262;SDS011;17892;52.080;9.006;2023-01-01T10:19:01;4.63;;;1.05;;
31262;SDS011;17892;52.080;9.006;2023-01-01T10:21:44;2.58;;;1.08;;
31262;SDS011;17892;52.080;9.006;2023-01-01T10:27:00;4.60;;;1.27;;
31262;SDS011;17892;52.080;9.006;2023-01-01T10:29:42;3.00;;;1.13;;
31262;SDS011;17892;52.080;9.006;2023-01-01T10:32:21;3.75;;;1.00;;
31262;SDS011;17892;52.080;9.006;2023-01-01T10:34:57;3.10;;;0.82;;
31262;SDS011;17892;52.080;9.006;2023-01-01T10:37:25;3.97;;;1.08;;
31262;SDS011;17892;52.080;9.006;2023-01-01T10:39:59;2.50;;;1.20;;
31262;SDS011;17892;52.080;9.006;2023-01-01T10:42:38;2.55;;;0.88;;
31262;SDS011;17892;52.080;9.006;2023-01-01T10:45:04;2.28;;;0.80;;
31262;SDS011;17892;52.080;9.006;2023-01-01T10:47:33;2.80;;;0.77;;
31262;SDS011;17892;52.080;9.006;2023-01-01T10:49:59;2.42;;;0.80;;
31262;SDS011;17892;52.080;9.006;2023-01-01T10:52:36;2.00;;;0.80;;
31262;SDS011;17892;52.080;9.006;2023-01-01T10:55:05;1.52;;;0.60;;
31262;SDS011;17892;52.080;9.006;2023-01-01T10:57:43;2.03;;;0.70;;
31262;SDS011;17892;52.080;9.006;2023-01-01T11:00:19;3.30;;;0.82;;
31262;SDS011;17892;52.080;9.006;2023-01-01T11:02:48;3.22;;;0.88;;
31262;SDS011;17892;52.080;9.006;2023-01-01T11:05:35;3.10;;;0.73;;
31262;SDS011;17892;52.080;9.006;2023-01-01T11:08:01;2.92;;;0.73;;
31262;SDS011;17892;52.080;9.006;2023-01-01T11:10:26;5.13;;;0.90;;
31262;SDS011;17892;52.080;9.006;2023-01-01T11:12:55;2.47;;;1.13;;
31262;SDS011;17892;52.080;9.006;2023-01-01T11:15:22;2.67;;;1.02;;
31262;SDS011;17892;52.080;9.006;2023-01-01T11:18:02;2.67;;;0.60;;
31262;SDS011;17892;52.080;9.006;2023-01-01T11:20:31;2.38;;;0.73;;
31262;SDS011;17892;52.080;9.006;2023-01-01T11:22:58;1.58;;;0.65;;
31262;SDS011;17892;52.080;9.006;2023-01-01T11:25:42;2.40;;;0.88;;
31262;SDS011;17892;52.080;9.006;2023-01-01T11:28:42;2.97;;;0.90;;
31262;SDS011;17892;52.080;9.006;2023-01-01T11:31:46;1.42;;;0.55;;
31262;SDS011;17892;52.080;9.006;2023-01-01T11:34:58;2.05;;;1.27;;
31262;SDS011;17892;52.080;9.006;2023-01-01T11:37:06;2.38;;;0.70;;
31262;SDS011;17892;52.080;9.006;2023-01-01T11:39:43;2.38;;;0.70;;
31262;SDS011;17892;52.080;9.006;2023-01-01T11:42:19;2.92;;;0.82;;
31262;SDS011;17892;52.080;9.006;2023-01-01T11:45:02;1.90;;;0.70;;
31262;SDS011;17892;52.080;9.006;2023-01-01T11:47:37;3.03;;;0.80;;
31262;SDS011;17892;52.080;9.006;2023-01-01T11:52:41;3.35;;;0.90;;
31262;SDS011;17892;52.080;9.006;2023-01-01T12:01:18;1.58;;;0.60;;
31262;SDS011;17892;52.080;9.006;2023-01-01T12:03:58;2.08;;;0.80;;
31262;SDS011;17892;52.080;9.006;2023-01-01T12:06:37;3.60;;;1.10;;
31262;SDS011;17892;52.080;9.006;2023-01-01T12:09:21;2.55;;;1.00;;
31262;SDS011;17892;52.080;9.006;2023-01-01T12:12:27;3.15;;;0.88;;
31262;SDS011;17892;52.080;9.006;2023-01-01T12:15:04;1.40;;;0.60;;
31262;SDS011;17892;52.080;9.006;2023-01-01T12:18:11;2.33;;;0.85;;
31262;SDS011;17892;52.080;9.006;2023-01-01T12:20:57;1.20;;;0.60;;
31262;SDS011;17892;52.080;9.006;2023-01-01T12:23:27;2.60;;;0.82;;
31262;SDS011;17892;52.080;9.006;2023-01-01T12:26:09;1.85;;;0.75;;
31262;SDS011;17892;52.080;9.006;2023-01-01T12:43:02;4.25;;;0.82;;
31262;SDS011;17892;52.080;9.006;2023-01-01T12:46:25;3.95;;;0.95;;
31262;SDS011;17892;52.080;9.006;2023-01-01T12:49:18;2.17;;;0.73;;
31262;SDS011;17892;52.080;9.006;2023-01-01T12:52:11;3.80;;;1.00;;
31262;SDS011;17892;52.080;9.006;2023-01-01T12:57:50;2.22;;;0.80;;
31262;SDS011;17892;52.080;9.006;2023-01-01T13:00:28;1.85;;;0.77;;
31262;SDS011;17892;52.080;9.006;2023-01-01T13:03:01;2.40;;;0.80;;
31262;SDS011;17892;52.080;9.006;2023-01-01T13:08:07;3.67;;;1.02;;
31262;SDS011;17892;52.080;9.006;2023-01-01T13:10:34;2.13;;;0.70;;
31262;SDS011;17892;52.080;9.006;2023-01-01T13:18:05;3.42;;;0.95;;
31262;SDS011;17892;52.080;9.006;2023-01-01T13:21:04;2.15;;;0.75;;
31262;SDS011;17892;52.080;9.006;2023-01-01T13:23:41;2.97;;;1.00;;
31262;SDS011;17892;52.080;9.006;2023-01-01T13:42:45;2.95;;;0.85;;
31262;SDS011;17892;52.080;9.006;2023-01-01T13:57:37;3.78;;;1.20;;
31262;SDS011;17892;52.080;9.006;2023-01-01T14:00:33;2.55;;;0.80;;
31262;SDS011;17892;52.080;9.006;2023-01-01T14:03:23;3.70;;;0.93;;
31262;SDS011;17892;52.080;9.006;2023-01-01T14:05:59;3.20;;;1.17;;
31262;SDS011;17892;52.080;9.006;2023-01-01T14:10:58;6.40;;;1.42;;
31262;SDS011;17892;52.080;9.006;2023-01-01T14:13:27;2.17;;;0.70;;
31262;SDS011;17892;52.080;9.006;2023-01-01T14:18:46;4.57;;;1.40;;
31262;SDS011;17892;52.080;9.006;2023-01-01T14:21:16;4.43;;;1.40;;
31262;SDS011;17892;52.080;9.006;2023-01-01T14:23:48;2.13;;;0.70;;
31262;SDS011;17892;52.080;9.006;2023-01-01T14:26:18;2.10;;;0.88;;
31262;SDS011;17892;52.080;9.006;2023-01-01T14:28:47;2.65;;;0.88;;
31262;SDS011;17892;52.080;9.006;2023-01-01T14:31:18;3.03;;;0.80;;
31262;SDS011;17892;52.080;9.006;2023-01-01T14:33:47;6.82;;;1.48;;
31262;SDS011;17892;52.080;9.006;2023-01-01T14:36:14;3.22;;;1.00;;
31262;SDS011;17892;52.080;9.006;2023-01-01T14:38:53;3.22;;;1.20;;
31262;SDS011;17892;52.080;9.006;2023-01-01T14:43:53;4.18;;;1.40;;
31262;SDS011;17892;52.080;9.006;2023-01-01T14:46:27;3.72;;;1.10;;
31262;SDS011;17892;52.080;9.006;2023-01-01T14:49:01;3.53;;;0.80;;
31262;SDS011;17892;52.080;9.006;2023-01-01T14:51:38;3.03;;;1.08;;
31262;SDS011;17892;52.080;9.006;2023-01-01T14:54:10;3.42;;;1.27;;
31262;SDS011;17892;52.080;9.006;2023-01-01T14:56:42;3.50;;;1.05;;
31262;SDS011;17892;52.080;9.006;2023-01-01T15:01:58;3.47;;;1.55;;
31262;SDS011;17892;52.080;9.006;2023-01-01T15:04:33;4.10;;;1.30;;
31262;SDS011;17892;52.080;9.006;2023-01-01T15:07:00;2.75;;;0.80;;
31262;SDS011;17892;52.080;9.006;2023-01-01T15:09:26;3.75;;;0.98;;
31262;SDS011;17892;52.080;9.006;2023-01-01T15:11:55;1.92;;;0.73;;
31262;SDS011;17892;52.080;9.006;2023-01-01T15:14:41;3.33;;;1.00;;
31262;SDS011;17892;52.080;9.006;2023-01-01T15:17:10;4.82;;;1.17;;
31262;SDS011;17892;52.080;9.006;2023-01-01T15:19:40;3.38;;;0.88;;
31262;SDS011;17892;52.080;9.006;2023-01-01T15:22:28;3.88;;;1.02;;
31262;SDS011;17892;52.080;9.006;2023-01-01T15:24:57;3.72;;;1.20;;
31262;SDS011;17892;52.080;9.006;2023-01-01T15:27:27;2.92;;;0.90;;
31262;SDS011;17892;52.080;9.006;2023-01-01T15:29:56;4.22;;;0.98;;
31262;SDS011;17892;52.080;9.006;2023-01-01T15:32:23;3.08;;;0.88;;
31262;SDS011;17892;52.080;9.006;2023-01-01T15:34:58;3.05;;;0.82;;
31262;SDS011;17892;52.080;9.006;2023-01-01T15:45:25;3.03;;;0.95;;
31262;SDS011;17892;52.080;9.006;2023-01-01T15:53:08;12.05;;;1.25;;
31262;SDS011;17892;52.080;9.006;2023-01-01T15:55:43;3.40;;;1.10;;
31262;SDS011;17892;52.080;9.006;2023-01-01T15:58:20;3.45;;;1.20;;
31262;SDS011;17892;52.080;9.006;2023-01-01T16:00:57;2.15;;;0.90;;
31262;SDS011;17892;52.080;9.006;2023-01-01T16:03:27;2.58;;;0.80;;
31262;SDS011;17892;52.080;9.006;2023-01-01T16:05:55;2.92;;;0.80;;
31262;SDS011;17892;52.080;9.006;2023-01-01T16:08:21;3.65;;;1.10;;
31262;SDS011;17892;52.080;9.006;2023-01-01T16:10:47;4.45;;;1.00;;
31262;SDS011;17892;52.080;9.006;2023-01-01T16:13:13;3.22;;;0.90;;
31262;SDS011;17892;52.080;9.006;2023-01-01T16:15:52;2.17;;;0.70;;
31262;SDS011;17892;52.080;9.006;2023-01-01T16:18:25;3.22;;;1.10;;
31262;SDS011;17892;52.080;9.006;2023-01-01T16:20:57;3.78;;;1.63;;
31262;SDS011;17892;52.080;9.006;2023-01-01T16:23:24;2.95;;;0.80;;
31262;SDS011;17892;52.080;9.006;2023-01-01T16:25:49;2.72;;;0.98;;
31262;SDS011;17892;52.080;9.006;2023-01-01T16:28:15;3.40;;;0.90;;
31262;SDS011;17892;52.080;9.006;2023-01-01T16:30:41;2.70;;;0.75;;
31262;SDS011;17892;52.080;9.006;2023-01-01T16:33:10;2.33;;;0.68;;
31262;SDS011;17892;52.080;9.006;2023-01-01T16:35:40;4.40;;;1.10;;
31262;SDS011;17892;52.080;9.006;2023-01-01T16:38:05;2.83;;;0.70;;
31262;SDS011;17892;52.080;9.006;2023-01-01T16:40:31;5.30;;;1.38;;
31262;SDS011;17892;52.080;9.006;2023-01-01T16:42:58;2.60;;;0.63;;
31262;SDS011;17892;52.080;9.006;2023-01-01T16:45:24;3.58;;;1.10;;
31262;SDS011;17892;52.080;9.006;2023-01-01T16:47:49;3.60;;;1.15;;
31262;SDS011;17892;52.080;9.006;2023-01-01T16:50:15;4.43;;;1.20;;
31262;SDS011;17892;52.080;9.006;2023-01-01T16:52:41;3.97;;;1.10;;
31262;SDS011;17892;52.080;9.006;2023-01-01T16:55:07;3.38;;;1.23;;
31262;SDS011;17892;52.080;9.006;2023-01-01T16:57:33;2.65;;;0.70;;
31262;SDS011;17892;52.080;9.006;2023-01-01T16:59:59;3.00;;;1.00;;
31262;SDS011;17892;52.080;9.006;2023-01-01T17:02:25;2.30;;;0.68;;
31262;SDS011;17892;52.080;9.006;2023-01-01T17:04:53;1.98;;;0.82;;
31262;SDS011;17892;52.080;9.006;2023-01-01T17:07:18;15.98;;;1.42;;
31262;SDS011;17892;52.080;9.006;2023-01-01T17:09:44;5.18;;;0.93;;
31262;SDS011;17892;52.080;9.006;2023-01-01T17:12:10;2.17;;;0.82;;
31262;SDS011;17892;52.080;9.006;2023-01-01T17:14:35;3.63;;;1.08;;
31262;SDS011;17892;52.080;9.006;2023-01-01T17:17:01;2.15;;;0.80;;
31262;SDS011;17892;52.080;9.006;2023-01-01T17:19:27;2.38;;;1.10;;
31262;SDS011;17892;52.080;9.006;2023-01-01T17:21:52;4.20;;;0.90;;
31262;SDS011;17892;52.080;9.006;2023-01-01T17:24:18;3.50;;;1.23;;
31262;SDS011;17892;52.080;9.006;2023-01-01T17:26:45;3.53;;;1.00;;
31262;SDS011;17892;52.080;9.006;2023-01-01T17:29:16;2.28;;;0.98;;
31262;SDS011;17892;52.080;9.006;2023-01-01T17:31:43;2.80;;;0.90;;